Time;durP1;ratioP1;P1;durP2;ratioP2;P2;SDS_P1;SDS_P2;PMS_P1;PMS_P2;Temp;Humidity;BMP_temperature;BMP_pressure;BME280_temperature;BME280_humidity;BME280_pressure;Samples;Min_cycle;Max_cycle;Signal;HPM_P1;HPM_P2
2023/11/07 00:00:41;;;;;;;9.52;6.90;;;;;;;;;;5057163;28;20483;-52
2023/11/07 00:03:08;;;;;;;13.23;7.05;;;;;;;;;;5052717;28;20029;-51
2023/11/07 00:05:34;;;;;;;11.10;7.00;;;;;;;;;;5052909;28;20028;-50
2023/11/07 00:08:00;;;;;;;11.43;7.75;;;;;;;;;;5052287;28;20070;-53
2023/11/07 00:10:28;;;;;;;9.32;6.70;;;;;;;;;;5062884;28;20124;-52
2023/11/07 00:12:54;;;;;;;11.93;8.10;;;;;;;;;;5051487;28;20017;-51
2023/11/07 00:15:20;;;;;;;9.35;6.32;;;;;;;;;;5050415;28;20124;-51
2023/11/07 00:17:46;;;;;;;10.70;6.53;;;;;;;;;;5041704;28;20056;-52
2023/11/07 00:20:12;;;;;;;12.43;6.63;;;;;;;;;;5052340;28;20033;-51
2023/11/07 00:22:38;;;;;;;12.75;6.70;;;;;;;;;;5052689;28;20021;-55
2023/11/07 00:25:07;;;;;;;10.88;6.70;;;;;;;;;;5052222;28;20552;-54
2023/11/07 00:27:33;;;;;;;12.85;7.63;;;;;;;;;;5052653;28;20424;-51
2023/11/07 00:29:59;;;;;;;11.43;7.38;;;;;;;;;;5052576;28;20031;-56
2023/11/07 00:32:25;;;;;;;9.43;6.63;;;;;;;;;;5052286;28;20017;-56
2023/11/07 00:34:51;;;;;;;10.13;6.60;;;;;;;;;;5052446;28;20040;-51
2023/11/07 00:37:17;;;;;;;12.98;7.13;;;;;;;;;;5052287;28;20527;-52
2023/11/07 00:39:43;;;;;;;10.10;7.45;;;;;;;;;;5052640;28;20017;-51
2023/11/07 00:42:09;;;;;;;11.23;6.80;;;;;;;;;;5052166;28;20049;-53
2023/11/07 00:44:35;;;;;;;12.23;6.97;;;;;;;;;;5038348;28;20474;-51
2023/11/07 00:47:01;;;;;;;11.98;7.05;;;;;;;;;;5050960;28;20021;-54
2023/11/07 00:49:28;;;;;;;9.05;6.63;;;;;;;;;;5052042;28;20031;-55
2023/11/07 00:51:54;;;;;;;9.98;6.63;;;;;;;;;;5052188;28;20025;-53
2023/11/07 00:54:20;;;;;;;10.38;7.13;;;;;;;;;;5052042;28;20055;-56
2023/11/07 00:56:45;;;;;;;13.18;8.10;;;;;;;;;;5052164;28;20104;-55
2023/11/07 00:59:12;;;;;;;10.13;7.25;;;;;;;;;;5051991;28;20057;-54
2023/11/07 01:01:38;;;;;;;12.77;8.20;;;;;;;;;;5050142;28;20062;-53
2023/11/07 01:04:04;;;;;;;15.25;9.68;;;;;;;;;;5051859;28;20040;-55
2023/11/07 01:06:30;;;;;;;12.63;8.60;;;;;;;;;;5051855;28;20363;-54
2023/11/07 01:08:56;;;;;;;13.43;9.40;;;;;;;;;;5051056;28;20035;-52
2023/11/07 01:11:22;;;;;;;14.13;9.30;;;;;;;;;;5047293;28;20025;-53
2023/11/07 01:13:48;;;;;;;13.25;8.95;;;;;;;;;;5043799;28;20478;-54
2023/11/07 01:16:14;;;;;;;16.08;9.80;;;;;;;;;;5048337;28;20028;-55
2023/11/07 01:18:40;;;;;;;11.27;9.13;;;;;;;;;;5048933;28;20051;-56
2023/11/07 01:21:06;;;;;;;11.90;8.82;;;;;;;;;;5043428;28;20027;-54
2023/11/07 01:23:32;;;;;;;13.98;8.82;;;;;;;;;;5051552;28;20032;-54
2023/11/07 01:26:02;;;;;;;15.02;9.23;;;;;;;;;;5051612;28;20025;-52
2023/11/07 01:28:28;;;;;;;12.57;8.43;;;;;;;;;;5051900;28;20009;-56
2023/11/07 01:30:54;;;;;;;12.35;8.10;;;;;;;;;;5051635;28;20536;-55
2023/11/07 01:33:20;;;;;;;11.23;7.93;;;;;;;;;;5051596;28;20453;-55
2023/11/07 01:35:46;;;;;;;13.30;8.30;;;;;;;;;;5051491;28;20466;-55
2023/11/07 01:38:12;;;;;;;13.93;8.38;;;;;;;;;;5044001;28;20143;-56
2023/11/07 01:40:38;;;;;;;12.68;7.95;;;;;;;;;;5051354;28;20486;-52
2023/11/07 01:43:14;;;;;;;12.18;7.40;;;;;;;;;;5051363;28;20029;-54
2023/11/07 01:45:40;;;;;;;11.65;7.68;;;;;;;;;;5051476;28;20032;-49
2023/11/07 01:48:10;;;;;;;13.93;7.32;;;;;;;;;;5051746;28;20021;-55
2023/11/07 01:50:37;;;;;;;10.57;6.75;;;;;;;;;;5051496;28;20027;-51
2023/11/07 01:53:04;;;;;;;11.05;7.55;;;;;;;;;;5051659;28;20037;-50
2023/11/07 01:55:30;;;;;;;10.73;6.28;;;;;;;;;;5051299;28;20066;-53
2023/11/07 01:57:57;;;;;;;9.65;6.30;;;;;;;;;;5050703;28;20057;-52
2023/11/07 02:00:23;;;;;;;10.70;6.32;;;;;;;;;;5051162;28;20021;-53
2023/11/07 02:02:50;;;;;;;9.32;6.32;;;;;;;;;;5051136;28;20029;-52
2023/11/07 02:05:16;;;;;;;10.85;6.70;;;;;;;;;;5050912;28;20494;-51
2023/11/07 02:07:42;;;;;;;13.50;7.07;;;;;;;;;;5050587;28;20024;-51
2023/11/07 02:10:11;;;;;;;9.18;6.30;;;;;;;;;;5051168;28;20021;-51
2023/11/07 02:12:37;;;;;;;9.63;5.93;;;;;;;;;;5051086;28;20115;-54
2023/11/07 02:15:26;;;;;;;9.73;6.95;;;;;;;;;;5053890;28;20029;-55
2023/11/07 02:17:52;;;;;;;10.93;6.75;;;;;;;;;;5054825;28;20017;-54
2023/11/07 02:20:18;;;;;;;10.77;6.32;;;;;;;;;;5055048;28;20463;-52
2023/11/07 02:22:46;;;;;;;11.60;7.05;;;;;;;;;;5054706;28;20021;-54
2023/11/07 02:25:13;;;;;;;8.25;6.47;;;;;;;;;;5055078;28;20063;-51
2023/11/07 02:27:39;;;;;;;7.97;6.28;;;;;;;;;;5052162;28;20032;-55
2023/11/07 02:30:10;;;;;;;9.88;6.25;;;;;;;;;;5034771;28;20026;-52
2023/11/07 02:32:38;;;;;;;9.68;6.53;;;;;;;;;;5034015;28;20079;-55
2023/11/07 02:35:04;;;;;;;9.45;5.43;;;;;;;;;;5039831;28;20024;-53
2023/11/07 02:37:30;;;;;;;9.07;5.40;;;;;;;;;;5053762;28;20029;-50
2023/11/07 02:39:56;;;;;;;8.13;5.03;;;;;;;;;;5053549;28;20105;-54
2023/11/07 02:42:22;;;;;;;8.90;5.40;;;;;;;;;;5053510;28;20084;-53
2023/11/07 02:44:48;;;;;;;8.05;5.13;;;;;;;;;;5039471;28;20037;-50
2023/11/07 02:47:14;;;;;;;9.07;5.13;;;;;;;;;;5053981;28;20017;-55
2023/11/07 02:49:41;;;;;;;10.30;4.50;;;;;;;;;;5045875;28;20039;-52
2023/11/07 02:52:07;;;;;;;7.30;4.32;;;;;;;;;;5052795;28;20115;-50
2023/11/07 02:54:33;;;;;;;6.47;4.18;;;;;;;;;;5054321;28;20515;-53
2023/11/07 02:56:59;;;;;;;7.65;4.40;;;;;;;;;;5054126;28;20100;-51
2023/11/07 02:59:25;;;;;;;6.40;3.75;;;;;;;;;;5050588;28;20021;-54
2023/11/07 03:01:51;;;;;;;8.65;4.60;;;;;;;;;;5047446;28;20036;-54
2023/11/07 03:04:17;;;;;;;9.15;4.07;;;;;;;;;;5050355;28;20033;-56
2023/11/07 03:06:43;;;;;;;12.68;5.13;;;;;;;;;;5054075;28;20484;-54
2023/11/07 03:09:10;;;;;;;4.75;3.35;;;;;;;;;;5053855;28;20427;-55
2023/11/07 03:11:36;;;;;;;7.43;4.32;;;;;;;;;;5053817;28;20036;-54
2023/11/07 03:14:02;;;;;;;5.47;3.80;;;;;;;;;;5053777;28;20086;-54
2023/11/07 03:16:28;;;;;;;7.63;3.90;;;;;;;;;;5039879;28;20083;-52
2023/11/07 03:18:54;;;;;;;7.63;4.55;;;;;;;;;;5053878;28;20467;-49
2023/11/07 03:21:21;;;;;;;7.80;4.45;;;;;;;;;;5053619;28;20108;-50
2023/11/07 03:23:47;;;;;;;5.10;3.70;;;;;;;;;;5053534;28;20469;-52
2023/11/07 03:26:13;;;;;;;6.75;3.72;;;;;;;;;;5038881;28;20529;-54
2023/11/07 03:28:39;;;;;;;6.35;4.05;;;;;;;;;;5053583;28;20059;-52
2023/11/07 03:31:05;;;;;;;6.82;3.50;;;;;;;;;;5053654;28;20040;-54
2023/11/07 03:33:31;;;;;;;6.10;3.95;;;;;;;;;;5039340;28;20486;-53
2023/11/07 03:35:57;;;;;;;9.18;4.18;;;;;;;;;;5053528;28;20103;-52
2023/11/07 03:38:24;;;;;;;7.90;4.72;;;;;;;;;;5053340;28;20055;-52
2023/11/07 03:40:50;;;;;;;5.88;4.32;;;;;;;;;;5053254;28;20041;-53
2023/11/07 03:43:16;;;;;;;7.75;4.57;;;;;;;;;;5053252;28;20099;-53
2023/11/07 03:45:42;;;;;;;7.93;4.40;;;;;;;;;;5053438;28;20052;-54
2023/11/07 03:48:08;;;;;;;11.30;5.55;;;;;;;;;;5053376;28;20403;-54
2023/11/07 03:50:34;;;;;;;7.82;5.15;;;;;;;;;;5046300;28;20067;-55
2023/11/07 03:53:00;;;;;;;7.93;5.15;;;;;;;;;;5053191;28;20074;-55
2023/11/07 03:55:26;;;;;;;9.00;5.28;;;;;;;;;;5049314;28;20470;-52
2023/11/07 03:57:52;;;;;;;9.60;5.60;;;;;;;;;;5044227;28;20475;-55
2023/11/07 04:00:19;;;;;;;11.30;5.53;;;;;;;;;;5037440;28;20037;-56
2023/11/07 04:02:45;;;;;;;7.80;5.15;;;;;;;;;;5042787;28;20025;-56
2023/11/07 04:05:11;;;;;;;8.50;5.47;;;;;;;;;;5047580;28;20394;-57
2023/11/07 04:07:37;;;;;;;8.18;5.20;;;;;;;;;;5052896;28;20025;-56
2023/11/07 04:10:05;;;;;;;11.95;5.35;;;;;;;;;;5051477;28;20036;-56
2023/11/07 04:12:32;;;;;;;8.20;5.38;;;;;;;;;;5052609;28;20017;-56
2023/11/07 04:14:58;;;;;;;8.48;5.45;;;;;;;;;;5052839;28;20108;-56
2023/11/07 04:17:24;;;;;;;7.57;5.35;;;;;;;;;;5052503;28;20021;-54
2023/11/07 04:19:50;;;;;;;8.27;4.97;;;;;;;;;;5052612;28;20120;-56
2023/11/07 04:22:17;;;;;;;6.30;4.25;;;;;;;;;;5038427;28;20486;-55
2023/11/07 04:24:43;;;;;;;8.23;5.13;;;;;;;;;;5052457;28;20036;-55
2023/11/07 04:27:10;;;;;;;9.65;4.82;;;;;;;;;;5052459;28;20404;-56
2023/11/07 04:29:37;;;;;;;5.65;3.75;;;;;;;;;;5051120;28;20070;-53
2023/11/07 04:32:03;;;;;;;8.75;4.03;;;;;;;;;;5052632;28;20029;-52
2023/11/07 04:34:29;;;;;;;5.32;3.63;;;;;;;;;;5052289;28;20100;-51
2023/11/07 04:36:56;;;;;;;4.75;3.25;;;;;;;;;;5051415;28;20060;-54
2023/11/07 04:39:22;;;;;;;5.90;3.60;;;;;;;;;;5052140;28;20478;-56
2023/11/07 04:41:48;;;;;;;7.15;3.50;;;;;;;;;;5052011;28;20041;-56
2023/11/07 04:44:15;;;;;;;5.22;2.78;;;;;;;;;;5052163;28;20113;-57
2023/11/07 04:46:42;;;;;;;5.00;3.15;;;;;;;;;;5049213;28;20033;-56
2023/11/07 04:49:09;;;;;;;5.55;2.90;;;;;;;;;;5040071;28;20104;-55
2023/11/07 04:51:36;;;;;;;5.97;2.72;;;;;;;;;;5052433;28;20036;-55
2023/11/07 04:54:02;;;;;;;4.15;2.42;;;;;;;;;;5038365;28;20021;-55
2023/11/07 04:56:28;;;;;;;2.55;2.35;;;;;;;;;;5052381;28;20052;-56
2023/11/07 04:58:54;;;;;;;4.90;2.67;;;;;;;;;;5052188;28;20029;-57
2023/11/07 05:01:21;;;;;;;4.97;2.30;;;;;;;;;;5051996;28;20107;-56
2023/11/07 05:03:48;;;;;;;5.43;2.20;;;;;;;;;;5038027;28;20455;-57
2023/11/07 05:06:14;;;;;;;7.85;2.28;;;;;;;;;;5052252;28;20021;-58
2023/11/07 05:08:40;;;;;;;2.95;1.90;;;;;;;;;;5052286;28;20048;-58
2023/11/07 05:11:06;;;;;;;5.90;2.17;;;;;;;;;;5052020;28;20335;-53
2023/11/07 05:13:32;;;;;;;3.05;1.77;;;;;;;;;;5051766;28;20132;-54
2023/11/07 05:16:00;;;;;;;2.88;1.67;;;;;;;;;;5051671;28;20032;-55
2023/11/07 05:18:26;;;;;;;2.97;1.67;;;;;;;;;;5050406;28;20115;-55
2023/11/07 05:20:52;;;;;;;3.88;1.90;;;;;;;;;;5051538;28;20507;-55
2023/11/07 05:23:19;;;;;;;5.18;2.42;;;;;;;;;;5051868;28;20021;-57
2023/11/07 05:25:45;;;;;;;3.55;2.20;;;;;;;;;;5038128;28;20032;-54
2023/11/07 05:28:11;;;;;;;5.53;2.15;;;;;;;;;;5050299;28;20116;-55
2023/11/07 05:30:37;;;;;;;3.65;1.77;;;;;;;;;;5051633;28;20115;-54
2023/11/07 05:33:19;;;;;;;5.30;1.80;;;;;;;;;;5051431;28;20025;-54
2023/11/07 05:35:44;;;;;;;5.45;2.58;;;;;;;;;;5051720;28;20494;-54
2023/11/07 05:38:10;;;;;;;5.05;2.13;;;;;;;;;;5051471;28;20093;-57
2023/11/07 05:40:36;;;;;;;6.63;2.25;;;;;;;;;;5042653;28;20508;-55
2023/11/07 05:43:02;;;;;;;3.53;2.33;;;;;;;;;;5043632;28;20020;-56
2023/11/07 05:45:28;;;;;;;4.07;1.83;;;;;;;;;;5047749;28;20432;-57
2023/11/07 05:47:55;;;;;;;2.03;1.58;;;;;;;;;;5047618;28;20103;-57
2023/11/07 05:50:25;;;;;;;5.03;1.90;;;;;;;;;;5055571;28;20025;-58
2023/11/07 05:52:51;;;;;;;4.25;1.83;;;;;;;;;;5055614;28;20074;-57
2023/11/07 05:55:17;;;;;;;4.38;1.73;;;;;;;;;;5054134;28;20017;-55
2023/11/07 05:57:43;;;;;;;2.40;1.60;;;;;;;;;;5046568;28;20031;-56
2023/11/07 06:00:10;;;;;;;3.53;2.00;;;;;;;;;;5053418;28;20021;-54
2023/11/07 06:02:37;;;;;;;3.72;1.70;;;;;;;;;;5041571;28;20025;-54
2023/11/07 06:05:03;;;;;;;5.22;2.13;;;;;;;;;;5055026;28;20033;-54
2023/11/07 06:07:30;;;;;;;7.63;2.33;;;;;;;;;;5054988;28;20500;-51
2023/11/07 06:09:56;;;;;;;2.83;1.50;;;;;;;;;;5053714;28;20071;-55
2023/11/07 06:12:22;;;;;;;5.32;1.50;;;;;;;;;;5054114;28;20021;-53
2023/11/07 06:14:48;;;;;;;4.20;1.67;;;;;;;;;;5055189;28;20104;-54
2023/11/07 06:17:17;;;;;;;3.20;1.38;;;;;;;;;;5052164;28;20021;-54
2023/11/07 06:19:43;;;;;;;2.92;1.42;;;;;;;;;;5042744;28;20389;-52
2023/11/07 06:22:09;;;;;;;1.80;1.30;;;;;;;;;;5048228;28;20021;-56
2023/11/07 06:24:35;;;;;;;2.28;1.35;;;;;;;;;;5040429;28;20143;-55
2023/11/07 06:27:01;;;;;;;2.97;1.58;;;;;;;;;;5051510;28;20049;-56
2023/11/07 06:29:27;;;;;;;4.40;1.40;;;;;;;;;;5046763;28;20060;-55
2023/11/07 06:31:53;;;;;;;4.95;2.20;;;;;;;;;;5040597;28;20033;-54
2023/11/07 06:34:19;;;;;;;3.17;1.60;;;;;;;;;;5041163;28;20096;-56
2023/11/07 06:36:46;;;;;;;6.50;2.22;;;;;;;;;;5051325;28;20120;-56
2023/11/07 06:39:12;;;;;;;4.07;2.75;;;;;;;;;;5051733;28;20512;-55
2023/11/07 06:41:38;;;;;;;7.60;3.67;;;;;;;;;;5052479;28;20530;-53
2023/11/07 06:44:04;;;;;;;5.18;3.85;;;;;;;;;;5053485;28;20093;-54
2023/11/07 06:46:30;;;;;;;7.40;4.68;;;;;;;;;;5054354;28;20025;-51
2023/11/07 06:48:56;;;;;;;9.07;5.78;;;;;;;;;;5050993;28;20497;-55
2023/11/07 06:51:23;;;;;;;10.73;6.03;;;;;;;;;;5054197;28;20096;-54
2023/11/07 06:53:50;;;;;;;9.60;5.88;;;;;;;;;;5042323;28;20022;-52
2023/11/07 06:56:16;;;;;;;11.50;5.55;;;;;;;;;;5046818;28;20474;-55
2023/11/07 06:58:42;;;;;;;8.05;5.38;;;;;;;;;;5054108;28;20021;-55
2023/11/07 07:01:13;;;;;;;10.70;6.05;;;;;;;;;;5048634;28;20021;-55
2023/11/07 07:03:39;;;;;;;7.80;6.30;;;;;;;;;;5048238;28;20029;-55
2023/11/07 07:06:06;;;;;;;11.88;6.68;;;;;;;;;;5038092;28;20367;-55
2023/11/07 07:08:32;;;;;;;11.02;6.50;;;;;;;;;;5049894;28;20033;-56
2023/11/07 07:10:58;;;;;;;10.27;6.00;;;;;;;;;;5048839;28;20466;-55
2023/11/07 07:13:25;;;;;;;11.18;5.78;;;;;;;;;;5054147;28;20036;-55
2023/11/07 07:15:51;;;;;;;10.02;5.90;;;;;;;;;;5051028;28;20052;-55
2023/11/07 07:18:22;;;;;;;10.70;6.30;;;;;;;;;;5053714;28;20032;-53
2023/11/07 07:20:51;;;;;;;6.47;5.72;;;;;;;;;;5048378;28;20053;-54
2023/11/07 07:23:17;;;;;;;12.68;5.60;;;;;;;;;;5043446;28;20477;-56
2023/11/07 07:25:43;;;;;;;12.05;6.05;;;;;;;;;;5052234;28;20116;-56
2023/11/07 07:28:09;;;;;;;12.70;5.35;;;;;;;;;;5053777;28;20139;-56
2023/11/07 07:30:37;;;;;;;12.38;5.90;;;;;;;;;;5052443;28;20093;-56
2023/11/07 07:33:06;;;;;;;10.32;6.63;;;;;;;;;;5053458;28;20021;-54
2023/11/07 07:35:33;;;;;;;12.73;6.72;;;;;;;;;;5052478;28;20028;-55
2023/11/07 07:38:02;;;;;;;8.25;6.47;;;;;;;;;;5051796;28;20071;-56
2023/11/07 07:40:29;;;;;;;13.10;7.30;;;;;;;;;;5052116;28;20045;-54
2023/11/07 07:42:58;;;;;;;15.77;8.02;;;;;;;;;;5051372;28;20017;-54
2023/11/07 07:45:24;;;;;;;20.20;8.68;;;;;;;;;;5051348;28;20033;-56
2023/11/07 07:47:50;;;;;;;15.68;9.20;;;;;;;;;;5052314;28;20029;-52
2023/11/07 07:50:18;;;;;;;12.80;8.95;;;;;;;;;;5053095;28;20173;-55
2023/11/07 07:52:44;;;;;;;12.85;8.13;;;;;;;;;;5051046;28;20051;-54
2023/11/07 07:55:13;;;;;;;10.57;8.13;;;;;;;;;;5053020;28;20029;-54
2023/11/07 07:57:41;;;;;;;15.57;11.07;;;;;;;;;;5051269;28;20498;-56
2023/11/07 08:00:12;;;;;;;12.68;8.98;;;;;;;;;;5049304;28;20379;-55
2023/11/07 08:02:39;;;;;;;14.52;9.18;;;;;;;;;;5052973;28;20091;-56
2023/11/07 08:05:06;;;;;;;11.93;8.52;;;;;;;;;;5035701;28;20074;-53
2023/11/07 08:07:33;;;;;;;13.90;9.18;;;;;;;;;;5046564;28;20020;-60
2023/11/07 08:09:59;;;;;;;10.95;7.60;;;;;;;;;;5041144;28;20378;-67
2023/11/07 08:12:25;;;;;;;11.85;7.55;;;;;;;;;;5043552;28;20036;-65
2023/11/07 08:14:51;;;;;;;11.88;7.43;;;;;;;;;;5043629;28;20337;-67
2023/11/07 08:17:18;;;;;;;13.07;8.23;;;;;;;;;;5044491;28;20063;-74
2023/11/07 08:19:44;;;;;;;11.02;8.32;;;;;;;;;;5046448;28;20036;-73
2023/11/07 08:22:10;;;;;;;12.77;9.20;;;;;;;;;;5035117;28;20473;-70
2023/11/07 08:24:36;;;;;;;12.90;8.35;;;;;;;;;;5039965;28;20056;-66
2023/11/07 08:27:02;;;;;;;14.70;9.68;;;;;;;;;;5048730;28;20454;-64
2023/11/07 08:29:28;;;;;;;13.32;9.95;;;;;;;;;;5041172;28;20111;-64
2023/11/07 08:31:54;;;;;;;13.90;9.45;;;;;;;;;;5033882;28;20401;-62
2023/11/07 08:34:22;;;;;;;15.40;11.07;;;;;;;;;;5038910;28;20386;-61
2023/11/07 08:36:48;;;;;;;19.73;11.70;;;;;;;;;;5045391;28;20428;-70
2023/11/07 08:39:24;;;;;;;19.25;13.02;;;;;;;;;;5037730;28;20033;-71
2023/11/07 08:41:54;;;;;;;19.70;13.77;;;;;;;;;;5041187;28;20124;-69
2023/11/07 08:44:21;;;;;;;20.02;12.80;;;;;;;;;;5044092;28;20064;-72
2023/11/07 08:46:47;;;;;;;17.85;14.35;;;;;;;;;;5046067;28;20028;-71
2023/11/07 08:49:16;;;;;;;18.42;13.73;;;;;;;;;;5041168;28;20112;-75
2023/11/07 08:51:42;;;;;;;20.70;13.70;;;;;;;;;;5037417;28;20343;-71
2023/11/07 08:54:08;;;;;;;23.50;15.07;;;;;;;;;;5048210;28;20052;-70
2023/11/07 08:56:34;;;;;;;21.58;16.92;;;;;;;;;;5043455;28;20056;-68
2023/11/07 08:59:00;;;;;;;24.45;15.75;;;;;;;;;;5044211;28;20579;-68
2023/11/07 09:01:27;;;;;;;21.83;15.40;;;;;;;;;;5046847;28;20082;-63
2023/11/07 09:03:53;;;;;;;20.52;16.40;;;;;;;;;;5049205;28;20052;-63
2023/11/07 09:06:19;;;;;;;24.70;16.73;;;;;;;;;;5044931;28;20048;-63
2023/11/07 09:08:46;;;;;;;21.90;17.50;;;;;;;;;;5045464;28;20021;-67
2023/11/07 09:11:12;;;;;;;25.70;19.55;;;;;;;;;;5043323;28;20036;-70
2023/11/07 09:13:39;;;;;;;26.55;17.67;;;;;;;;;;5040072;28;20044;-66
2023/11/07 09:16:08;;;;;;;24.55;19.00;;;;;;;;;;5041163;28;20095;-66
2023/11/07 09:18:34;;;;;;;22.33;17.02;;;;;;;;;;5046215;28;20017;-69
2023/11/07 09:21:00;;;;;;;23.95;17.40;;;;;;;;;;5059213;28;20038;-66
2023/11/07 09:23:27;;;;;;;20.50;15.45;;;;;;;;;;5045360;28;20041;-68
2023/11/07 09:25:53;;;;;;;22.77;16.95;;;;;;;;;;5046017;28;20470;-71
2023/11/07 09:28:19;;;;;;;21.48;17.08;;;;;;;;;;5045012;28;20068;-73
2023/11/07 09:30:46;;;;;;;22.00;17.23;;;;;;;;;;5047860;28;20061;-76
2023/11/07 09:33:12;;;;;;;23.33;17.42;;;;;;;;;;5043325;28;20069;-64
2023/11/07 09:35:38;;;;;;;20.45;15.93;;;;;;;;;;5046895;28;20070;-66
2023/11/07 09:38:04;;;;;;;23.30;18.02;;;;;;;;;;5047832;28;20126;-62
2023/11/07 09:40:31;;;;;;;23.60;17.00;;;;;;;;;;5048453;28;20057;-68
2023/11/07 09:42:57;;;;;;;24.90;17.80;;;;;;;;;;5052361;28;20025;-66
2023/11/07 09:45:23;;;;;;;29.17;19.92;;;;;;;;;;5044888;28;20033;-65
2023/11/07 09:47:50;;;;;;;24.85;19.38;;;;;;;;;;5050407;28;20066;-64
2023/11/07 09:50:17;;;;;;;28.92;20.05;;;;;;;;;;5044693;28;20037;-63
2023/11/07 09:52:50;;;;;;;27.77;20.90;;;;;;;;;;5044815;28;20127;-67
2023/11/07 09:55:17;;;;;;;28.60;20.17;;;;;;;;;;5051294;28;20078;-67
2023/11/07 09:57:49;;;;;;;31.63;20.33;;;;;;;;;;5042296;28;20128;-63
2023/11/07 10:00:23;;;;;;;21.98;19.52;;;;;;;;;;5041052;28;20119;-60
2023/11/07 10:02:50;;;;;;;27.98;21.92;;;;;;;;;;5040300;28;20454;-69
2023/11/07 10:05:18;;;;;;;24.42;20.67;;;;;;;;;;5044829;28;20083;-68
2023/11/07 10:07:48;;;;;;;25.55;21.20;;;;;;;;;;5047144;28;20103;-62
2023/11/07 10:10:16;;;;;;;29.10;21.42;;;;;;;;;;5041642;28;20047;-67
2023/11/07 10:12:43;;;;;;;29.08;22.08;;;;;;;;;;5048130;28;20024;-65
2023/11/07 10:15:16;;;;;;;30.83;22.67;;;;;;;;;;5050433;28;20041;-67
2023/11/07 10:17:56;;;;;;;26.70;21.92;;;;;;;;;;5036374;28;20040;-63
2023/11/07 10:20:22;;;;;;;27.10;20.73;;;;;;;;;;5048188;28;20044;-66
2023/11/07 10:22:48;;;;;;;26.98;20.60;;;;;;;;;;5044975;28;20459;-65
2023/11/07 10:25:27;;;;;;;37.47;22.63;;;;;;;;;;5051579;28;20084;-65
2023/11/07 10:28:09;;;;;;;26.10;22.00;;;;;;;;;;5045225;28;20104;-67
2023/11/07 10:30:39;;;;;;;25.70;22.98;;;;;;;;;;5050711;28;20083;-64
2023/11/07 10:33:05;;;;;;;29.75;22.48;;;;;;;;;;5048829;28;20021;-65
2023/11/07 10:35:32;;;;;;;25.50;22.63;;;;;;;;;;5050775;28;20027;-60
2023/11/07 10:37:58;;;;;;;26.63;22.50;;;;;;;;;;5041596;28;20063;-58
2023/11/07 10:40:24;;;;;;;33.72;23.73;;;;;;;;;;5051467;28;20379;-62
2023/11/07 10:42:50;;;;;;;34.75;23.58;;;;;;;;;;5038692;28;20526;-60
2023/11/07 10:45:17;;;;;;;30.55;24.23;;;;;;;;;;5040480;28;20142;-60
2023/11/07 10:47:44;;;;;;;29.05;23.00;;;;;;;;;;5045630;28;20020;-62
2023/11/07 10:50:17;;;;;;;28.85;25.20;;;;;;;;;;5043342;28;20044;-64
2023/11/07 10:52:44;;;;;;;29.33;22.80;;;;;;;;;;5043653;28;20042;-63
2023/11/07 10:55:10;;;;;;;28.83;23.35;;;;;;;;;;5046518;28;20246;-63
2023/11/07 10:57:37;;;;;;;28.67;23.30;;;;;;;;;;5045240;28;20029;-70
2023/11/07 11:00:13;;;;;;;26.20;23.42;;;;;;;;;;5038887;28;20033;-67
2023/11/07 11:02:47;;;;;;;30.30;23.73;;;;;;;;;;5049747;28;20047;-63
2023/11/07 11:05:15;;;;;;;30.23;24.25;;;;;;;;;;5047756;28;20033;-55
2023/11/07 11:07:43;;;;;;;29.92;25.08;;;;;;;;;;5043564;28;20032;-54
2023/11/07 11:10:11;;;;;;;29.33;24.30;;;;;;;;;;5045570;28;20108;-53
2023/11/07 11:12:42;;;;;;;31.33;24.95;;;;;;;;;;5039622;28;20111;-68
2023/11/07 11:15:09;;;;;;;32.45;25.23;;;;;;;;;;5038196;28;20029;-70
2023/11/07 11:17:39;;;;;;;29.55;24.92;;;;;;;;;;5038848;28;20025;-67
2023/11/07 11:20:05;;;;;;;29.60;23.52;;;;;;;;;;5045739;28;20029;-66
2023/11/07 11:22:58;;;;;;;28.98;23.30;;;;;;;;;;5043852;28;20031;-64
2023/11/07 11:25:24;;;;;;;28.50;23.35;;;;;;;;;;5029219;28;20113;-64
2023/11/07 11:27:56;;;;;;;27.58;22.88;;;;;;;;;;5041940;28;20543;-62
2023/11/07 11:30:31;;;;;;;28.00;23.20;;;;;;;;;;5041998;28;20336;-55
2023/11/07 11:33:07;;;;;;;26.85;22.05;;;;;;;;;;5043336;28;20025;-59
2023/11/07 11:35:35;;;;;;;36.60;24.08;;;;;;;;;;5039595;28;20063;-59
2023/11/07 11:38:13;;;;;;;25.73;22.92;;;;;;;;;;5045593;28;20478;-59
2023/11/07 11:40:45;;;;;;;26.65;22.38;;;;;;;;;;5043503;28;20049;-60
2023/11/07 11:43:11;;;;;;;33.17;24.95;;;;;;;;;;5044332;28;20061;-58
2023/11/07 11:45:38;;;;;;;26.58;23.73;;;;;;;;;;5043036;28;20037;-56
2023/11/07 11:48:05;;;;;;;28.60;23.65;;;;;;;;;;5041796;28;20017;-59
2023/11/07 11:50:31;;;;;;;29.90;23.65;;;;;;;;;;5040659;28;20040;-61
2023/11/07 11:52:57;;;;;;;29.80;25.10;;;;;;;;;;5046828;28;20019;-61
2023/11/07 11:55:23;;;;;;;28.48;24.25;;;;;;;;;;5043579;28;20132;-61
2023/11/07 11:58:15;;;;;;;32.03;24.83;;;;;;;;;;5045360;28;20051;-61
2023/11/07 12:00:44;;;;;;;32.75;25.17;;;;;;;;;;5036938;28;20037;-61
2023/11/07 12:03:15;;;;;;;30.17;26.33;;;;;;;;;;5045800;28;20031;-61
2023/11/07 12:05:42;;;;;;;31.13;25.70;;;;;;;;;;5042106;28;20372;-61
2023/11/07 12:08:26;;;;;;;33.20;25.63;;;;;;;;;;5046825;28;20412;-60
2023/11/07 12:10:58;;;;;;;37.00;26.55;;;;;;;;;;5044630;28;20104;-60
2023/11/07 12:13:25;;;;;;;36.90;27.13;;;;;;;;;;5043646;28;20036;-61
2023/11/07 12:15:51;;;;;;;38.00;28.92;;;;;;;;;;5045472;28;20115;-61
2023/11/07 12:18:22;;;;;;;36.55;29.30;;;;;;;;;;5043122;28;20083;-60
2023/11/07 12:20:50;;;;;;;35.05;29.20;;;;;;;;;;5041710;28;20025;-61
2023/11/07 12:23:16;;;;;;;36.70;28.65;;;;;;;;;;5044148;28;20025;-61
2023/11/07 12:25:51;;;;;;;34.80;28.95;;;;;;;;;;5044509;28;20024;-62
2023/11/07 12:28:23;;;;;;;32.88;29.20;;;;;;;;;;5042496;28;20033;-61
2023/11/07 12:30:56;;;;;;;29.77;25.60;;;;;;;;;;5042148;28;20074;-61
2023/11/07 12:33:22;;;;;;;30.67;26.35;;;;;;;;;;5044475;28;20431;-61
2023/11/07 12:35:54;;;;;;;29.25;26.02;;;;;;;;;;5041113;28;20033;-61
2023/11/07 12:38:21;;;;;;;32.88;27.52;;;;;;;;;;5047899;28;20386;-60
2023/11/07 12:40:47;;;;;;;32.88;27.65;;;;;;;;;;5043468;28;20044;-60
2023/11/07 12:43:15;;;;;;;32.05;26.17;;;;;;;;;;5039245;28;20029;-61
2023/11/07 12:45:43;;;;;;;33.65;26.02;;;;;;;;;;5043637;28;20167;-61
2023/11/07 12:48:10;;;;;;;31.42;26.13;;;;;;;;;;5044952;28;20057;-61
2023/11/07 12:50:42;;;;;;;33.25;26.95;;;;;;;;;;5041180;28;20033;-61
2023/11/07 12:53:08;;;;;;;32.65;27.15;;;;;;;;;;5044516;28;20032;-61
2023/11/07 12:55:35;;;;;;;31.08;25.13;;;;;;;;;;5043181;28;20060;-61
2023/11/07 12:58:03;;;;;;;30.05;26.15;;;;;;;;;;5049255;28;20033;-61
2023/11/07 13:00:29;;;;;;;31.02;26.05;;;;;;;;;;5051884;28;20065;-61
2023/11/07 13:02:56;;;;;;;36.05;28.17;;;;;;;;;;5050889;28;20059;-61
2023/11/07 13:05:22;;;;;;;36.58;26.45;;;;;;;;;;5050716;28;20037;-61
2023/11/07 13:07:48;;;;;;;37.65;28.70;;;;;;;;;;5052089;28;20100;-61
2023/11/07 13:10:15;;;;;;;36.58;26.45;;;;;;;;;;5051028;28;20032;-61
2023/11/07 13:12:44;;;;;;;31.05;27.73;;;;;;;;;;5049919;28;20033;-61
2023/11/07 13:15:11;;;;;;;31.92;26.02;;;;;;;;;;5051171;28;20078;-61
2023/11/07 13:17:38;;;;;;;36.60;27.23;;;;;;;;;;5051943;28;20036;-61
2023/11/07 13:20:08;;;;;;;31.35;26.88;;;;;;;;;;5049858;28;20037;-61
2023/11/07 13:22:35;;;;;;;33.38;27.48;;;;;;;;;;5048719;28;20363;-61
2023/11/07 13:25:06;;;;;;;28.45;24.80;;;;;;;;;;5031904;28;20065;-61
2023/11/07 13:27:32;;;;;;;37.25;27.42;;;;;;;;;;5034758;28;20108;-61
2023/11/07 13:29:58;;;;;;;31.52;24.98;;;;;;;;;;5050820;28;20045;-61
2023/11/07 13:32:24;;;;;;;33.42;26.23;;;;;;;;;;5051955;28;20037;-62
2023/11/07 13:34:50;;;;;;;41.50;25.80;;;;;;;;;;5049453;28;20036;-60
2023/11/07 13:37:16;;;;;;;39.80;27.00;;;;;;;;;;5050674;28;20025;-61
2023/11/07 13:39:44;;;;;;;38.22;24.85;;;;;;;;;;5051675;28;20029;-61
2023/11/07 13:42:10;;;;;;;26.48;22.10;;;;;;;;;;5050465;28;20041;-61
2023/11/07 13:44:36;;;;;;;30.67;23.55;;;;;;;;;;5051661;28;20048;-61
2023/11/07 13:47:02;;;;;;;27.92;23.33;;;;;;;;;;5050677;28;20026;-61
2023/11/07 13:49:28;;;;;;;26.63;22.10;;;;;;;;;;5048523;28;20465;-61
2023/11/07 13:51:54;;;;;;;27.83;21.88;;;;;;;;;;5050168;28;20025;-61
2023/11/07 13:54:20;;;;;;;31.60;23.65;;;;;;;;;;5051637;28;20025;-61
2023/11/07 13:56:46;;;;;;;32.97;22.55;;;;;;;;;;5050664;28;20021;-61
2023/11/07 13:59:13;;;;;;;26.75;22.63;;;;;;;;;;5049569;28;20363;-61
2023/11/07 14:01:39;;;;;;;26.33;21.63;;;;;;;;;;5049957;28;20029;-61
2023/11/07 14:04:05;;;;;;;31.15;23.30;;;;;;;;;;5051588;28;20040;-61
2023/11/07 14:06:32;;;;;;;29.40;22.67;;;;;;;;;;5050689;28;20040;-61
2023/11/07 14:08:58;;;;;;;27.95;24.23;;;;;;;;;;5052147;28;20378;-61
2023/11/07 14:11:24;;;;;;;29.80;23.17;;;;;;;;;;5052107;28;20017;-61
2023/11/07 14:13:51;;;;;;;31.60;23.50;;;;;;;;;;5053969;28;20025;-61
2023/11/07 14:16:17;;;;;;;33.25;23.88;;;;;;;;;;5053370;28;20029;-61
2023/11/07 14:18:45;;;;;;;30.40;24.00;;;;;;;;;;5046498;28;20098;-61
2023/11/07 14:21:12;;;;;;;34.35;24.27;;;;;;;;;;5055547;28;20064;-61
2023/11/07 14:23:40;;;;;;;33.05;23.55;;;;;;;;;;5045848;28;20029;-61
2023/11/07 14:26:06;;;;;;;28.95;22.48;;;;;;;;;;5051432;28;20132;-61
2023/11/07 14:28:33;;;;;;;30.08;22.80;;;;;;;;;;5050946;28;20025;-61